createdAt,value
2018-03-22T00:00:34.836Z,59.70
2018-03-22T00:03:01.830Z,59.70
2018-03-22T00:05:28.837Z,59.90
2018-03-22T00:07:56.592Z,59.80
2018-03-22T00:10:23.588Z,59.70
2018-03-22T00:12:50.584Z,59.40
2018-03-22T00:15:17.590Z,59.80
2018-03-22T00:17:44.593Z,59.90
2018-03-22T00:20:12.357Z,59.80
2018-03-22T00:22:40.113Z,59.70
2018-03-22T00:25:07.872Z,59.70
2018-03-22T00:27:35.629Z,59.70
2018-03-22T00:30:02.634Z,59.70
2018-03-22T00:32:29.624Z,59.70
2018-03-22T00:34:56.616Z,59.70
2018-03-22T00:37:23.608Z,59.70
2018-03-22T00:39:50.589Z,59.70
2018-03-22T00:42:17.571Z,59.70
2018-03-22T00:44:44.552Z,59.70
2018-03-22T00:47:12.300Z,60.50
2018-03-22T00:49:39.281Z,59.80
2018-03-22T00:52:06.263Z,59.80
2018-03-22T00:54:33.242Z,59.70
2018-03-22T00:57:00.378Z,59.70
2018-03-22T00:59:28.152Z,59.80
2018-03-22T01:01:55.133Z,59.70
2018-03-22T01:04:22.115Z,59.70
2018-03-22T01:06:49.104Z,59.70
2018-03-22T01:09:16.856Z,59.70
2018-03-22T01:11:43.845Z,59.80
2018-03-22T01:14:10.825Z,59.80
2018-03-22T01:16:37.810Z,59.80
2018-03-22T01:19:05.561Z,59.80
2018-03-22T01:21:32.541Z,59.70
2018-03-22T01:23:59.527Z,59.80
2018-03-22T01:26:26.529Z,59.80
2018-03-22T01:28:53.509Z,59.70
2018-03-22T01:31:20.505Z,59.70
2018-03-22T01:33:48.255Z,59.70
2018-03-22T01:36:16.011Z,59.70
2018-03-22T01:38:42.999Z,59.70
2018-03-22T01:41:10.008Z,59.70
2018-03-22T01:43:37.761Z,59.70
2018-03-22T01:46:04.752Z,59.70
2018-03-22T01:48:31.739Z,59.70
2018-03-22T01:50:58.745Z,59.70
2018-03-22T01:53:25.725Z,59.70
2018-03-22T01:55:52.723Z,59.80
2018-03-22T01:58:19.702Z,59.70
2018-03-22T02:00:46.697Z,59.80
2018-03-22T02:03:14.448Z,59.80
2018-03-22T02:05:41.434Z,59.70
2018-03-22T02:08:08.428Z,59.70
2018-03-22T02:10:35.412Z,59.70
2018-03-22T02:13:02.390Z,59.70
2018-03-22T02:15:29.371Z,59.70
2018-03-22T02:17:56.360Z,59.70
2018-03-22T02:20:23.342Z,59.80
2018-03-22T02:22:50.324Z,59.70
2018-03-22T02:25:18.080Z,59.70
2018-03-22T02:27:45.834Z,59.70
2018-03-22T02:30:12.824Z,59.70
2018-03-22T02:32:39.804Z,59.70
2018-03-22T02:35:06.789Z,59.70
2018-03-22T02:37:34.543Z,59.70
2018-03-22T02:40:02.302Z,59.70
2018-03-22T02:42:30.047Z,59.80
2018-03-22T02:44:57.029Z,59.60
2018-03-22T02:47:24.025Z,59.70
2018-03-22T02:49:51.003Z,59.70
2018-03-22T02:52:18.751Z,59.70
2018-03-22T02:54:45.739Z,59.70
2018-03-22T02:57:12.724Z,59.70
2018-03-22T02:59:39.698Z,59.70
2018-03-22T03:02:07.460Z,59.70
2018-03-22T03:04:34.443Z,59.60
2018-03-22T03:07:01.429Z,59.70
2018-03-22T03:09:28.408Z,59.70
2018-03-22T03:11:56.163Z,59.60
2018-03-22T03:14:23.915Z,59.60
2018-03-22T03:16:50.919Z,59.60
2018-03-22T03:19:17.922Z,60.50
2018-03-22T03:21:45.679Z,59.70
2018-03-22T03:24:13.431Z,59.70
2018-03-22T03:26:40.427Z,59.60
2018-03-22T03:29:07.415Z,59.60
2018-03-22T03:31:34.409Z,59.60
2018-03-22T03:34:01.392Z,59.70
2018-03-22T03:36:28.388Z,59.60
2018-03-22T03:38:56.134Z,59.50
2018-03-22T03:41:23.892Z,59.50
2018-03-22T03:43:50.876Z,59.50
2018-03-22T03:46:17.864Z,59.50
2018-03-22T03:48:44.844Z,59.40
2018-03-22T03:51:12.590Z,59.50
2018-03-22T03:53:40.349Z,60.10
2018-03-22T03:56:07.327Z,59.50
2018-03-22T03:58:34.320Z,60.00
2018-03-22T04:01:01.304Z,59.40
2018-03-22T04:03:29.051Z,59.40
2018-03-22T04:05:56.035Z,59.40
2018-03-22T04:08:23.020Z,59.40
2018-03-22T04:10:50.011Z,59.40
2018-03-22T04:13:16.996Z,59.40
2018-03-22T04:15:43.977Z,59.40
2018-03-22T04:18:10.975Z,59.40
2018-03-22T04:20:37.964Z,59.40
2018-03-22T04:23:04.947Z,59.40
2018-03-22T04:25:31.927Z,59.40
2018-03-22T04:27:58.912Z,59.40
2018-03-22T04:30:26.663Z,59.50
2018-03-22T04:32:53.652Z,59.40
2018-03-22T04:35:20.747Z,59.40
2018-03-22T04:37:47.724Z,59.40
2018-03-22T04:40:15.476Z,59.40
2018-03-22T04:42:43.228Z,59.50
2018-03-22T04:45:10.971Z,59.40
2018-03-22T04:47:37.952Z,59.40
2018-03-22T04:50:05.703Z,59.40
2018-03-22T04:52:32.683Z,59.40
2018-03-22T04:54:59.675Z,59.40
2018-03-22T04:57:26.660Z,59.40
2018-03-22T04:59:53.655Z,59.40
2018-03-22T05:02:20.670Z,59.40
2018-03-22T05:04:47.687Z,59.30
2018-03-22T05:07:15.440Z,59.40
2018-03-22T05:09:42.424Z,59.30
2018-03-22T05:12:09.412Z,60.00
2018-03-22T05:14:36.395Z,59.30
2018-03-22T05:17:04.147Z,59.30
2018-03-22T05:19:31.892Z,59.30
2018-03-22T05:21:58.874Z,59.20
2018-03-22T05:24:25.856Z,59.30
2018-03-22T05:26:52.849Z,59.30
2018-03-22T05:29:20.599Z,59.20
2018-03-22T05:31:47.620Z,59.20
2018-03-22T05:34:14.599Z,59.80
2018-03-22T05:36:42.364Z,59.20
2018-03-22T05:39:09.345Z,59.20
2018-03-22T05:41:36.433Z,59.20
2018-03-22T05:44:03.421Z,59.10
2018-03-22T05:46:30.403Z,59.10
2018-03-22T05:48:57.399Z,59.20
2018-03-22T05:51:25.153Z,59.20
2018-03-22T05:53:52.131Z,59.10
2018-03-22T05:56:19.113Z,59.20
2018-03-22T05:58:46.105Z,59.10
2018-03-22T06:01:13.860Z,59.10
2018-03-22T06:03:41.607Z,59.10
2018-03-22T06:06:08.595Z,59.10
2018-03-22T06:08:35.584Z,59.70
2018-03-22T06:11:02.565Z,59.10
2018-03-22T06:13:30.308Z,59.20
2018-03-22T06:15:57.296Z,59.20
2018-03-22T06:18:24.277Z,59.10
2018-03-22T06:20:51.255Z,59.20
2018-03-22T06:23:19.010Z,59.20
2018-03-22T06:25:46.006Z,59.20
2018-03-22T06:28:12.993Z,58.70
2018-03-22T06:30:39.971Z,58.30
2018-03-22T06:33:06.961Z,58.40
2018-03-22T06:35:33.940Z,58.70
2018-03-22T06:38:01.706Z,58.90
2018-03-22T06:40:29.465Z,59.00
2018-03-22T06:42:57.224Z,59.70
2018-03-22T06:45:24.211Z,59.10
2018-03-22T06:47:51.200Z,59.10
2018-03-22T06:50:18.180Z,59.10
2018-03-22T06:52:46.000Z,59.00
2018-03-22T06:55:12.989Z,59.00
2018-03-22T06:57:40.744Z,59.10
2018-03-22T07:00:08.496Z,59.10
2018-03-22T07:02:35.487Z,59.10
2018-03-22T07:05:02.478Z,59.70
2018-03-22T07:07:29.515Z,59.10
2018-03-22T07:09:56.496Z,59.10
2018-03-22T07:12:24.261Z,59.20
2018-03-22T07:14:52.012Z,59.10
2018-03-22T07:17:19.772Z,59.20
2018-03-22T07:19:47.525Z,59.10
2018-03-22T07:22:14.505Z,59.10
2018-03-22T07:24:41.493Z,59.10
2018-03-22T07:27:08.476Z,59.10
2018-03-22T07:29:36.223Z,59.20
2018-03-22T07:32:03.212Z,59.20
2018-03-22T07:34:30.200Z,59.20
2018-03-22T07:36:57.185Z,59.20
2018-03-22T07:39:24.960Z,59.20
2018-03-22T07:41:51.909Z,59.20
2018-03-22T07:44:24.719Z,59.20
2018-03-22T07:46:51.699Z,59.20
2018-03-22T07:49:18.687Z,59.20
2018-03-22T07:51:45.681Z,59.70
2018-03-22T07:54:12.668Z,59.20
2018-03-22T07:56:39.660Z,59.20
2018-03-22T07:59:06.648Z,59.20
2018-03-22T08:01:34.397Z,59.30
2018-03-22T08:04:02.151Z,59.30
2018-03-22T08:06:29.134Z,59.20
2018-03-22T08:08:56.119Z,59.20
2018-03-22T08:11:23.099Z,59.20
2018-03-22T08:13:50.846Z,59.30
2018-03-22T08:16:17.839Z,59.20
2018-03-22T08:18:44.824Z,59.20
2018-03-22T08:21:11.810Z,59.20
2018-03-22T08:23:39.560Z,59.20
2018-03-22T08:26:07.315Z,59.30
2018-03-22T08:28:34.300Z,59.20
2018-03-22T08:31:01.278Z,59.20
2018-03-22T08:33:28.260Z,59.20
2018-03-22T08:35:55.744Z,59.20
2018-03-22T08:38:22.739Z,59.20
2018-03-22T08:40:49.724Z,59.20
2018-03-22T08:43:17.482Z,59.80
2018-03-22T08:45:45.242Z,59.30
2018-03-22T08:48:13.013Z,59.30
2018-03-22T08:50:40.761Z,59.30
2018-03-22T08:53:08.519Z,59.30
2018-03-22T08:55:36.279Z,59.20
2018-03-22T08:58:03.284Z,59.20
2018-03-22T09:00:30.307Z,59.20
2018-03-22T09:02:57.292Z,59.20
2018-03-22T09:05:24.273Z,59.20
2018-03-22T09:07:52.032Z,59.20
2018-03-22T09:10:19.026Z,59.20
2018-03-22T09:12:46.002Z,59.20
2018-03-22T09:15:12.990Z,59.20
2018-03-22T09:17:39.971Z,59.20
2018-03-22T09:20:06.960Z,59.20
2018-03-22T09:22:34.715Z,59.30
2018-03-22T09:25:01.701Z,59.30
2018-03-22T09:27:28.688Z,59.20
2018-03-22T09:29:55.667Z,59.80
2018-03-22T09:32:23.412Z,59.30
2018-03-22T09:34:50.406Z,59.30
2018-03-22T09:37:17.387Z,59.20
2018-03-22T09:39:44.366Z,59.20
2018-03-22T09:42:12.120Z,59.20
2018-03-22T09:44:39.867Z,59.20
2018-03-22T09:47:06.851Z,59.20
2018-03-22T09:49:33.841Z,59.20
2018-03-22T09:52:00.823Z,59.20
2018-03-22T09:54:28.575Z,59.20
2018-03-22T09:56:55.629Z,59.20
2018-03-22T09:59:22.555Z,59.80
2018-03-22T10:01:49.544Z,59.20
2018-03-22T10:04:16.524Z,59.20
2018-03-22T10:06:43.512Z,59.20
2018-03-22T10:09:11.264Z,59.20
2018-03-22T10:11:38.243Z,59.20
2018-03-22T10:14:05.235Z,59.20
2018-03-22T10:16:32.222Z,59.20
2018-03-22T10:18:59.966Z,59.20
2018-03-22T10:21:27.719Z,59.20
2018-03-22T10:23:54.696Z,59.20
2018-03-22T10:26:22.489Z,59.20
2018-03-22T10:28:49.500Z,59.20
2018-03-22T10:31:16.464Z,59.20
2018-03-22T10:33:43.456Z,59.20
2018-03-22T10:36:10.446Z,59.20
2018-03-22T10:38:37.432Z,59.20
2018-03-22T10:41:04.415Z,59.20
2018-03-22T10:43:32.182Z,59.70
2018-03-22T10:45:59.926Z,59.80
2018-03-22T10:48:26.937Z,59.20
2018-03-22T10:50:53.895Z,59.20
2018-03-22T10:53:20.879Z,59.20
2018-03-22T10:55:48.628Z,59.20
2018-03-22T10:58:15.617Z,59.20
2018-03-22T11:00:48.409Z,59.20
2018-03-22T11:03:21.195Z,59.20
2018-03-22T11:05:48.193Z,59.20
2018-03-22T11:08:15.176Z,59.20
2018-03-22T11:10:42.177Z,59.20
2018-03-22T11:13:09.155Z,59.20
2018-03-22T11:15:36.139Z,59.20
2018-03-22T11:18:03.123Z,59.20
2018-03-22T11:20:30.871Z,59.30
2018-03-22T11:22:57.855Z,59.20
2018-03-22T11:25:24.831Z,59.20
2018-03-22T11:27:51.815Z,59.20
2018-03-22T11:30:19.566Z,59.30
2018-03-22T11:32:46.547Z,59.30
2018-03-22T11:35:13.532Z,59.20
2018-03-22T11:37:40.515Z,59.20
2018-03-22T11:40:08.264Z,59.30
2018-03-22T11:42:35.243Z,59.30
2018-03-22T11:45:02.251Z,59.30
2018-03-22T11:47:29.229Z,59.20
2018-03-22T11:49:56.976Z,59.30
2018-03-22T11:52:24.739Z,59.50
2018-03-22T11:54:51.723Z,59.20
2018-03-22T11:57:18.712Z,59.00
2018-03-22T11:59:45.700Z,59.30
2018-03-22T12:02:12.692Z,59.30
2018-03-22T12:04:39.690Z,59.30
2018-03-22T12:07:07.512Z,59.40
2018-03-22T12:09:34.495Z,59.40
2018-03-22T12:12:02.248Z,59.40
2018-03-22T12:14:30.000Z,59.40
2018-03-22T12:16:56.987Z,59.20
2018-03-22T12:19:23.972Z,59.70
2018-03-22T12:21:50.960Z,59.40
2018-03-22T12:24:17.943Z,59.40
2018-03-22T12:26:44.932Z,59.40
2018-03-22T12:29:12.687Z,59.50
2018-03-22T12:31:39.680Z,59.50
2018-03-22T12:34:06.664Z,59.40
2018-03-22T12:36:33.648Z,59.40
2018-03-22T12:39:01.396Z,59.50
2018-03-22T12:41:29.150Z,59.40
2018-03-22T12:43:56.910Z,59.50
2018-03-22T12:46:23.895Z,59.50
2018-03-22T12:48:50.879Z,59.40
2018-03-22T12:51:17.934Z,59.40
2018-03-22T12:53:44.920Z,59.40
2018-03-22T12:56:12.667Z,59.40
2018-03-22T12:58:40.419Z,59.40
2018-03-22T13:01:07.414Z,59.40
2018-03-22T13:03:34.405Z,59.50
2018-03-22T13:06:01.388Z,59.40
2018-03-22T13:08:28.376Z,59.40
2018-03-22T13:10:55.355Z,59.50
2018-03-22T13:13:23.105Z,59.50
2018-03-22T13:15:50.119Z,59.40
2018-03-22T13:18:17.104Z,59.50
2018-03-22T13:20:44.093Z,59.50
2018-03-22T13:23:11.072Z,59.50
2018-03-22T13:25:38.060Z,59.50
2018-03-22T13:28:05.812Z,59.50
2018-03-22T13:30:33.561Z,59.50
2018-03-22T13:33:00.562Z,59.40
2018-03-22T13:35:27.553Z,59.50
2018-03-22T13:37:54.537Z,59.50
2018-03-22T13:40:21.524Z,59.50
2018-03-22T13:42:48.507Z,59.50
2018-03-22T13:45:16.257Z,59.50
2018-03-22T13:47:43.248Z,59.50
2018-03-22T13:50:10.234Z,59.60
2018-03-22T13:52:37.216Z,59.60
2018-03-22T13:55:04.971Z,59.60
2018-03-22T13:57:32.721Z,59.70
2018-03-22T13:59:59.712Z,59.60
2018-03-22T14:02:26.716Z,60.10
2018-03-22T14:04:53.700Z,59.60
2018-03-22T14:07:20.692Z,59.60
2018-03-22T14:09:47.675Z,59.50
2018-03-22T14:12:14.669Z,59.70
2018-03-22T14:14:41.656Z,59.60
2018-03-22T14:17:09.411Z,59.70
2018-03-22T14:19:37.163Z,59.70
2018-03-22T14:22:04.192Z,59.70
2018-03-22T14:24:31.177Z,59.70
2018-03-22T14:26:58.932Z,59.70
2018-03-22T14:29:26.690Z,59.70
2018-03-22T14:31:54.447Z,59.80
2018-03-22T14:34:21.435Z,59.80
2018-03-22T14:36:48.422Z,60.00
2018-03-22T14:39:15.408Z,60.40
2018-03-22T14:41:42.400Z,60.60
2018-03-22T14:44:09.384Z,60.70
2018-03-22T14:46:37.140Z,60.40
2018-03-22T14:49:04.888Z,60.30
2018-03-22T14:51:31.891Z,60.20
2018-03-22T14:53:58.869Z,60.10
2018-03-22T14:56:25.877Z,60.10
2018-03-22T14:58:52.851Z,60.60
2018-03-22T15:01:19.851Z,60.80
2018-03-22T15:03:46.835Z,60.90
2018-03-22T15:06:13.832Z,60.60
2018-03-22T15:08:41.579Z,60.60
2018-03-22T15:11:08.580Z,60.60
2018-03-22T15:13:35.563Z,60.60
2018-03-22T15:16:02.588Z,60.60
2018-03-22T15:18:29.582Z,60.60
2018-03-22T15:20:57.335Z,60.60
2018-03-22T15:23:26.246Z,60.60
2018-03-22T15:25:53.227Z,60.60
2018-03-22T15:28:20.259Z,60.60
2018-03-22T15:30:47.970Z,61.00
2018-03-22T15:33:14.951Z,60.60
2018-03-22T15:35:41.932Z,60.60
2018-03-22T15:38:08.986Z,60.60
2018-03-22T15:40:35.972Z,60.60
2018-03-22T15:43:03.725Z,60.60
2018-03-22T15:45:31.470Z,60.80
2018-03-22T15:47:58.468Z,60.80
2018-03-22T15:50:25.548Z,61.00
2018-03-22T15:52:52.845Z,60.80
2018-03-22T15:55:21.574Z,60.80
2018-03-22T15:57:48.782Z,60.80
2018-03-22T16:00:16.552Z,60.90
2018-03-22T16:02:44.305Z,61.00
2018-03-22T16:05:12.061Z,61.00
2018-03-22T16:07:39.812Z,61.00
2018-03-22T16:10:06.813Z,61.00
2018-03-22T16:12:33.788Z,61.20
2018-03-22T16:15:00.789Z,61.10
2018-03-22T16:17:27.779Z,61.20
2018-03-22T16:19:54.797Z,61.20
2018-03-22T16:22:21.786Z,61.10
2018-03-22T16:24:49.539Z,61.30
2018-03-22T16:27:16.631Z,61.30
2018-03-22T16:29:43.654Z,61.30
2018-03-22T16:32:10.651Z,61.40
2018-03-22T16:34:37.632Z,61.50
2018-03-22T16:37:04.616Z,61.40
2018-03-22T16:39:31.634Z,61.20
2018-03-22T16:41:59.400Z,61.80
2018-03-22T16:44:27.152Z,62.00
2018-03-22T16:46:54.142Z,61.90
2018-03-22T16:49:21.127Z,61.90
2018-03-22T16:51:48.120Z,61.80
2018-03-22T16:54:15.100Z,61.80
2018-03-22T16:56:42.088Z,61.70
2018-03-22T16:59:09.915Z,61.70
2018-03-22T17:01:36.908Z,61.60
2018-03-22T17:04:04.673Z,61.80
2018-03-22T17:06:32.451Z,61.90
2018-03-22T17:08:59.451Z,61.70
2018-03-22T17:11:26.453Z,61.90
2018-03-22T17:13:53.440Z,62.00
2018-03-22T17:16:20.440Z,62.00
2018-03-22T17:18:47.439Z,62.10
2018-03-22T17:21:14.455Z,62.10
2018-03-22T17:23:41.451Z,61.70
2018-03-22T17:26:09.210Z,61.90
2018-03-22T17:28:36.191Z,61.90
2018-03-22T17:31:03.181Z,62.30
2018-03-22T17:33:30.186Z,62.70
2018-03-22T17:35:57.177Z,62.90
2018-03-22T17:38:24.158Z,63.50
2018-03-22T17:40:51.149Z,63.00
2018-03-22T17:43:18.143Z,62.80
2018-03-22T17:45:45.890Z,62.80
2018-03-22T17:48:13.663Z,63.10
2018-03-22T17:50:40.683Z,63.00
2018-03-22T17:53:07.704Z,63.00
2018-03-22T17:55:34.700Z,63.00
2018-03-22T17:58:02.480Z,63.10
2018-03-22T18:00:29.469Z,63.10
2018-03-22T18:02:56.487Z,63.00
2018-03-22T18:05:23.487Z,63.20
2018-03-22T18:07:51.253Z,63.80
2018-03-22T18:10:19.008Z,63.40
2018-03-22T18:12:46.010Z,63.00
2018-03-22T18:15:12.996Z,63.30
2018-03-22T18:17:40.795Z,63.20
2018-03-22T18:20:08.565Z,63.70
2018-03-22T18:22:35.560Z,63.70
2018-03-22T18:25:02.853Z,63.30
2018-03-22T18:27:29.948Z,63.70
2018-03-22T18:29:58.010Z,64.60
2018-03-22T18:32:25.029Z,63.70
2018-03-22T18:34:52.020Z,63.70
2018-03-22T18:37:19.017Z,63.70
2018-03-22T18:39:46.015Z,63.40
2018-03-22T18:42:13.005Z,63.30
2018-03-22T18:44:39.988Z,63.50
2018-03-22T18:47:06.993Z,63.40
2018-03-22T18:49:34.002Z,63.10
2018-03-22T18:52:01.755Z,63.80
2018-03-22T18:54:28.744Z,63.70
2018-03-22T18:56:56.492Z,63.80
2018-03-22T18:59:24.244Z,63.80
2018-03-22T19:01:51.241Z,63.70
2018-03-22T19:04:18.312Z,63.70
2018-03-22T19:06:45.372Z,63.80
2018-03-22T19:09:13.120Z,63.70
2018-03-22T19:11:40.119Z,64.50
2018-03-22T19:14:07.873Z,63.70
2018-03-22T19:16:35.628Z,63.70
2018-03-22T19:19:03.381Z,64.60
2018-03-22T19:21:31.166Z,63.70
2018-03-22T19:23:58.118Z,63.80
2018-03-22T19:26:25.116Z,63.70
2018-03-22T19:28:52.109Z,64.50
2018-03-22T19:31:19.868Z,63.70
2018-03-22T19:33:47.633Z,63.70
2018-03-22T19:36:15.373Z,63.70
2018-03-22T19:38:42.358Z,63.70
2018-03-22T19:41:09.336Z,63.70
2018-03-22T19:43:36.322Z,64.00
2018-03-22T19:46:04.071Z,63.70
2018-03-22T19:48:31.071Z,63.70
2018-03-22T19:50:58.066Z,63.60
2018-03-22T19:53:25.828Z,63.70
2018-03-22T19:55:52.828Z,63.70
2018-03-22T19:58:19.915Z,63.80
2018-03-22T20:00:46.904Z,63.80
2018-03-22T20:03:14.158Z,63.70
2018-03-22T20:05:41.255Z,63.70
2018-03-22T20:08:08.303Z,63.70
2018-03-22T20:10:36.056Z,63.70
2018-03-22T20:13:03.044Z,63.70
2018-03-22T20:15:30.840Z,63.90
2018-03-22T20:17:58.580Z,63.70
2018-03-22T20:20:25.607Z,63.70
2018-03-22T20:22:53.352Z,63.70
2018-03-22T20:25:20.336Z,63.70
2018-03-22T20:27:47.325Z,63.70
2018-03-22T20:30:14.312Z,63.70
2018-03-22T20:32:42.067Z,63.70
2018-03-22T20:35:09.815Z,63.70
2018-03-22T20:37:36.810Z,63.70
2018-03-22T20:40:03.810Z,63.70
2018-03-22T20:42:30.799Z,63.80
2018-03-22T20:44:57.789Z,63.80
2018-03-22T20:47:24.783Z,63.80
2018-03-22T20:49:51.771Z,63.70
2018-03-22T20:52:18.764Z,63.80
2018-03-22T20:54:46.549Z,63.70
2018-03-22T20:57:13.532Z,63.70
2018-03-22T20:59:41.279Z,63.80
2018-03-22T21:02:08.269Z,63.70
2018-03-22T21:04:36.023Z,63.70
2018-03-22T21:07:03.011Z,63.70
2018-03-22T21:09:29.999Z,63.80
2018-03-22T21:11:56.988Z,64.00
2018-03-22T21:14:23.984Z,63.80
2018-03-22T21:16:50.972Z,63.80
2018-03-22T21:19:18.723Z,63.70
2018-03-22T21:21:46.480Z,63.80
2018-03-22T21:24:13.463Z,63.70
2018-03-22T21:26:40.444Z,63.70
2018-03-22T21:29:07.424Z,63.70
2018-03-22T21:31:35.172Z,63.80
2018-03-22T21:34:02.159Z,63.80
2018-03-22T21:36:29.248Z,63.50
2018-03-22T21:38:56.232Z,63.80
2018-03-22T21:41:23.974Z,63.80
2018-03-22T21:43:57.834Z,64.60
2018-03-22T21:46:24.827Z,63.70
2018-03-22T21:48:51.803Z,63.80
2018-03-22T21:51:18.834Z,63.70
2018-03-22T21:53:45.787Z,63.80
2018-03-22T21:56:12.775Z,63.80
2018-03-22T21:58:39.763Z,63.80
2018-03-22T22:01:07.536Z,63.70
2018-03-22T22:03:35.280Z,63.80
2018-03-22T22:06:02.275Z,63.80
2018-03-22T22:08:29.260Z,63.80
2018-03-22T22:10:56.257Z,63.80
2018-03-22T22:13:23.336Z,63.80
2018-03-22T22:15:50.329Z,63.80
2018-03-22T22:18:18.075Z,63.80
2018-03-22T22:20:45.828Z,63.90
2018-03-22T22:23:12.808Z,63.80
2018-03-22T22:25:39.788Z,63.80
2018-03-22T22:28:06.768Z,63.80
2018-03-22T22:30:33.751Z,63.80
2018-03-22T22:33:00.726Z,63.80
2018-03-22T22:35:27.712Z,63.80
2018-03-22T22:37:54.728Z,63.80
2018-03-22T22:40:21.715Z,63.80
2018-03-22T22:42:49.464Z,63.70
2018-03-22T22:45:17.213Z,63.80
2018-03-22T22:47:44.191Z,63.70
2018-03-22T22:50:11.172Z,63.80
2018-03-22T22:52:38.157Z,63.80
2018-03-22T22:55:05.132Z,63.80
2018-03-22T22:57:32.120Z,63.80
2018-03-22T22:59:59.103Z,63.80
2018-03-22T23:02:26.859Z,63.90
2018-03-22T23:04:53.844Z,63.80
2018-03-22T23:07:20.832Z,63.80
2018-03-22T23:09:47.815Z,63.80
2018-03-22T23:12:15.564Z,63.80
2018-03-22T23:14:43.316Z,63.80
2018-03-22T23:17:10.295Z,63.80
2018-03-22T23:19:37.280Z,63.80
2018-03-22T23:22:04.259Z,63.80
2018-03-22T23:24:32.020Z,63.80
2018-03-22T23:26:59.006Z,63.80
2018-03-22T23:29:25.988Z,63.10
2018-03-22T23:31:52.972Z,63.80
2018-03-22T23:34:20.724Z,63.80
2018-03-22T23:36:48.477Z,63.80
2018-03-22T23:39:15.468Z,63.80
2018-03-22T23:41:42.457Z,63.80
2018-03-22T23:44:09.451Z,63.80
2018-03-22T23:46:36.429Z,63.80
2018-03-22T23:49:03.424Z,63.80
2018-03-22T23:51:31.174Z,63.80
2018-03-22T23:53:58.171Z,63.80
2018-03-22T23:56:25.154Z,64.30
2018-03-22T23:58:52.143Z,63.80
